sensor_id;sensor_type;location;lat;lon;timestamp;P1;durP1;ratioP1;P2;durP2;ratioP2
60999;SDS011;46879;45.658;11.814;2023-12-14T00:01:20;13.27;;;4.18;;
60999;SDS011;46879;45.658;11.814;2023-12-14T00:06:21;5.60;;;4.00;;
60999;SDS011;46879;45.658;11.814;2023-12-14T00:11:21;8.32;;;3.97;;
60999;SDS011;46879;45.658;11.814;2023-12-14T00:16:22;12.02;;;3.72;;
60999;SDS011;46879;45.658;11.814;2023-12-14T00:21:23;6.97;;;3.60;;
60999;SDS011;46879;45.658;11.814;2023-12-14T00:26:23;9.32;;;3.97;;
60999;SDS011;46879;45.658;11.814;2023-12-14T00:31:24;7.60;;;4.13;;
60999;SDS011;46879;45.658;11.814;2023-12-14T00:36:24;8.27;;;3.78;;
60999;SDS011;46879;45.658;11.814;2023-12-14T00:41:25;7.45;;;3.67;;
60999;SDS011;46879;45.658;11.814;2023-12-14T00:46:25;5.35;;;3.53;;
60999;SDS011;46879;45.658;11.814;2023-12-14T00:51:26;7.25;;;3.90;;
60999;SDS011;46879;45.658;11.814;2023-12-14T00:56:27;9.00;;;3.70;;
60999;SDS011;46879;45.658;11.814;2023-12-14T01:01:27;7.03;;;3.75;;
60999;SDS011;46879;45.658;11.814;2023-12-14T01:06:28;9.75;;;3.90;;
60999;SDS011;46879;45.658;11.814;2023-12-14T01:11:28;9.55;;;3.67;;
60999;SDS011;46879;45.658;11.814;2023-12-14T01:16:29;9.30;;;3.78;;
60999;SDS011;46879;45.658;11.814;2023-12-14T01:21:29;5.78;;;3.20;;
60999;SDS011;46879;45.658;11.814;2023-12-14T01:26:30;8.07;;;3.55;;
60999;SDS011;46879;45.658;11.814;2023-12-14T01:31:31;4.50;;;3.35;;
60999;SDS011;46879;45.658;11.814;2023-12-14T01:36:31;11.05;;;3.40;;
60999;SDS011;46879;45.658;11.814;2023-12-14T01:41:32;12.50;;;3.85;;
60999;SDS011;46879;45.658;11.814;2023-12-14T01:46:32;5.63;;;3.22;;
60999;SDS011;46879;45.658;11.814;2023-12-14T01:51:33;6.47;;;3.42;;
60999;SDS011;46879;45.658;11.814;2023-12-14T01:56:35;3.35;;;3.00;;
60999;SDS011;46879;45.658;11.814;2023-12-14T02:01:38;4.05;;;3.42;;
60999;SDS011;46879;45.658;11.814;2023-12-14T02:06:43;4.72;;;3.30;;
60999;SDS011;46879;45.658;11.814;2023-12-14T02:11:43;5.68;;;3.15;;
60999;SDS011;46879;45.658;11.814;2023-12-14T02:16:44;3.80;;;2.70;;
60999;SDS011;46879;45.658;11.814;2023-12-14T02:21:44;6.55;;;3.08;;
60999;SDS011;46879;45.658;11.814;2023-12-14T02:26:45;8.60;;;3.47;;
60999;SDS011;46879;45.658;11.814;2023-12-14T02:31:46;4.80;;;3.40;;
60999;SDS011;46879;45.658;11.814;2023-12-14T02:36:47;4.13;;;2.80;;
60999;SDS011;46879;45.658;11.814;2023-12-14T02:41:47;4.60;;;3.30;;
60999;SDS011;46879;45.658;11.814;2023-12-14T02:46:48;5.18;;;3.20;;
60999;SDS011;46879;45.658;11.814;2023-12-14T02:51:48;3.17;;;2.88;;
60999;SDS011;46879;45.658;11.814;2023-12-14T02:56:49;4.70;;;2.95;;
60999;SDS011;46879;45.658;11.814;2023-12-14T03:01:49;5.10;;;3.17;;
60999;SDS011;46879;45.658;11.814;2023-12-14T03:06:50;5.93;;;3.17;;
60999;SDS011;46879;45.658;11.814;2023-12-14T03:11:51;5.72;;;2.88;;
60999;SDS011;46879;45.658;11.814;2023-12-14T03:16:51;3.83;;;2.90;;
60999;SDS011;46879;45.658;11.814;2023-12-14T03:21:52;6.82;;;3.50;;
60999;SDS011;46879;45.658;11.814;2023-12-14T03:26:53;3.95;;;2.90;;
60999;SDS011;46879;45.658;11.814;2023-12-14T03:31:56;4.55;;;2.63;;
60999;SDS011;46879;45.658;11.814;2023-12-14T03:36:57;4.13;;;3.05;;
60999;SDS011;46879;45.658;11.814;2023-12-14T03:41:58;4.43;;;2.90;;
60999;SDS011;46879;45.658;11.814;2023-12-14T03:46:59;3.95;;;2.60;;
60999;SDS011;46879;45.658;11.814;2023-12-14T03:52:00;4.28;;;2.50;;
60999;SDS011;46879;45.658;11.814;2023-12-14T03:57:00;3.80;;;2.50;;
60999;SDS011;46879;45.658;11.814;2023-12-14T04:02:01;4.22;;;2.80;;
60999;SDS011;46879;45.658;11.814;2023-12-14T04:07:02;12.40;;;3.05;;
60999;SDS011;46879;45.658;11.814;2023-12-14T04:12:03;5.35;;;2.50;;
60999;SDS011;46879;45.658;11.814;2023-12-14T04:17:04;4.95;;;2.50;;
60999;SDS011;46879;45.658;11.814;2023-12-14T04:22:05;7.03;;;2.60;;
60999;SDS011;46879;45.658;11.814;2023-12-14T04:27:06;6.72;;;2.70;;
60999;SDS011;46879;45.658;11.814;2023-12-14T04:32:07;4.65;;;2.83;;
60999;SDS011;46879;45.658;11.814;2023-12-14T04:37:07;8.65;;;2.40;;
60999;SDS011;46879;45.658;11.814;2023-12-14T04:42:08;3.90;;;2.38;;
60999;SDS011;46879;45.658;11.814;2023-12-14T04:47:08;2.85;;;2.50;;
60999;SDS011;46879;45.658;11.814;2023-12-14T04:52:09;9.73;;;2.55;;
60999;SDS011;46879;45.658;11.814;2023-12-14T04:57:10;6.00;;;2.70;;
60999;SDS011;46879;45.658;11.814;2023-12-14T05:02:10;4.68;;;2.40;;
60999;SDS011;46879;45.658;11.814;2023-12-14T05:07:11;3.40;;;2.22;;
60999;SDS011;46879;45.658;11.814;2023-12-14T05:12:11;3.05;;;2.20;;
60999;SDS011;46879;45.658;11.814;2023-12-14T05:17:12;3.55;;;2.67;;
60999;SDS011;46879;45.658;11.814;2023-12-14T05:22:12;3.35;;;2.55;;
60999;SDS011;46879;45.658;11.814;2023-12-14T05:27:13;3.28;;;2.25;;
60999;SDS011;46879;45.658;11.814;2023-12-14T05:32:14;2.55;;;2.30;;
60999;SDS011;46879;45.658;11.814;2023-12-14T05:37:14;3.67;;;2.58;;
60999;SDS011;46879;45.658;11.814;2023-12-14T05:42:16;3.55;;;2.72;;
60999;SDS011;46879;45.658;11.814;2023-12-14T05:47:17;2.50;;;2.30;;
60999;SDS011;46879;45.658;11.814;2023-12-14T05:52:18;4.25;;;2.67;;
60999;SDS011;46879;45.658;11.814;2023-12-14T05:57:19;3.75;;;2.45;;
60999;SDS011;46879;45.658;11.814;2023-12-14T06:02:19;10.25;;;2.53;;
60999;SDS011;46879;45.658;11.814;2023-12-14T06:07:20;3.05;;;2.08;;
60999;SDS011;46879;45.658;11.814;2023-12-14T06:12:20;6.90;;;2.63;;
60999;SDS011;46879;45.658;11.814;2023-12-14T06:17:21;2.88;;;2.13;;
60999;SDS011;46879;45.658;11.814;2023-12-14T06:22:21;3.47;;;2.22;;
60999;SDS011;46879;45.658;11.814;2023-12-14T06:27:22;4.82;;;2.38;;
60999;SDS011;46879;45.658;11.814;2023-12-14T06:32:26;17.45;;;2.30;;
60999;SDS011;46879;45.658;11.814;2023-12-14T06:37:27;22.13;;;2.60;;
60999;SDS011;46879;45.658;11.814;2023-12-14T06:42:27;10.10;;;2.40;;
60999;SDS011;46879;45.658;11.814;2023-12-14T06:47:28;9.23;;;2.40;;
60999;SDS011;46879;45.658;11.814;2023-12-14T06:52:29;4.07;;;2.40;;
60999;SDS011;46879;45.658;11.814;2023-12-14T06:57:29;14.20;;;3.15;;
60999;SDS011;46879;45.658;11.814;2023-12-14T07:02:30;16.27;;;3.10;;
60999;SDS011;46879;45.658;11.814;2023-12-14T07:07:32;9.73;;;4.90;;
60999;SDS011;46879;45.658;11.814;2023-12-14T07:12:32;12.25;;;6.07;;
60999;SDS011;46879;45.658;11.814;2023-12-14T07:17:33;7.50;;;5.75;;
60999;SDS011;46879;45.658;11.814;2023-12-14T07:22:33;9.38;;;6.30;;
60999;SDS011;46879;45.658;11.814;2023-12-14T07:27:34;8.52;;;6.13;;
60999;SDS011;46879;45.658;11.814;2023-12-14T07:32:35;10.82;;;6.03;;
60999;SDS011;46879;45.658;11.814;2023-12-14T07:37:35;5.32;;;4.82;;
60999;SDS011;46879;45.658;11.814;2023-12-14T07:42:36;10.70;;;5.18;;
60999;SDS011;46879;45.658;11.814;2023-12-14T07:47:36;8.48;;;5.13;;
60999;SDS011;46879;45.658;11.814;2023-12-14T07:52:37;12.18;;;5.68;;
60999;SDS011;46879;45.658;11.814;2023-12-14T07:57:37;8.00;;;4.40;;
60999;SDS011;46879;45.658;11.814;2023-12-14T08:02:38;9.60;;;5.40;;
60999;SDS011;46879;45.658;11.814;2023-12-14T08:07:39;8.50;;;5.10;;
60999;SDS011;46879;45.658;11.814;2023-12-14T08:12:39;10.75;;;5.00;;
60999;SDS011;46879;45.658;11.814;2023-12-14T08:17:40;9.63;;;5.03;;
60999;SDS011;46879;45.658;11.814;2023-12-14T08:22:41;10.63;;;5.13;;
60999;SDS011;46879;45.658;11.814;2023-12-14T08:27:44;12.82;;;4.95;;
60999;SDS011;46879;45.658;11.814;2023-12-14T08:32:45;8.68;;;4.70;;
60999;SDS011;46879;45.658;11.814;2023-12-14T08:37:45;6.78;;;4.70;;
60999;SDS011;46879;45.658;11.814;2023-12-14T08:42:46;12.68;;;4.80;;
60999;SDS011;46879;45.658;11.814;2023-12-14T08:47:47;12.25;;;4.60;;
60999;SDS011;46879;45.658;11.814;2023-12-14T08:52:48;6.25;;;3.88;;
60999;SDS011;46879;45.658;11.814;2023-12-14T08:57:48;5.60;;;3.78;;
60999;SDS011;46879;45.658;11.814;2023-12-14T09:02:50;5.75;;;4.53;;
60999;SDS011;46879;45.658;11.814;2023-12-14T09:07:51;7.55;;;3.70;;
60999;SDS011;46879;45.658;11.814;2023-12-14T09:12:54;10.07;;;4.72;;
60999;SDS011;46879;45.658;11.814;2023-12-14T09:17:55;8.65;;;4.28;;
60999;SDS011;46879;45.658;11.814;2023-12-14T09:22:56;6.03;;;4.30;;
60999;SDS011;46879;45.658;11.814;2023-12-14T09:27:57;7.72;;;4.20;;
60999;SDS011;46879;45.658;11.814;2023-12-14T09:32:57;6.38;;;4.10;;
60999;SDS011;46879;45.658;11.814;2023-12-14T09:37:58;4.03;;;3.63;;
60999;SDS011;46879;45.658;11.814;2023-12-14T09:42:58;5.55;;;3.65;;
60999;SDS011;46879;45.658;11.814;2023-12-14T09:47:59;7.95;;;4.57;;
60999;SDS011;46879;45.658;11.814;2023-12-14T09:53:00;9.07;;;4.10;;
60999;SDS011;46879;45.658;11.814;2023-12-14T09:58:01;7.13;;;4.45;;
60999;SDS011;46879;45.658;11.814;2023-12-14T10:03:19;6.53;;;3.85;;
60999;SDS011;46879;45.658;11.814;2023-12-14T10:08:20;4.88;;;3.90;;
60999;SDS011;46879;45.658;11.814;2023-12-14T10:13:35;7.00;;;4.15;;
60999;SDS011;46879;45.658;11.814;2023-12-14T10:18:37;9.00;;;3.85;;
60999;SDS011;46879;45.658;11.814;2023-12-14T10:23:38;10.65;;;4.20;;
60999;SDS011;46879;45.658;11.814;2023-12-14T10:28:39;4.75;;;3.80;;
60999;SDS011;46879;45.658;11.814;2023-12-14T10:33:40;5.90;;;3.75;;
60999;SDS011;46879;45.658;11.814;2023-12-14T10:38:41;6.05;;;4.15;;
60999;SDS011;46879;45.658;11.814;2023-12-14T10:43:45;7.55;;;4.38;;
60999;SDS011;46879;45.658;11.814;2023-12-14T10:48:48;4.15;;;3.40;;
60999;SDS011;46879;45.658;11.814;2023-12-14T10:53:50;4.95;;;4.20;;
60999;SDS011;46879;45.658;11.814;2023-12-14T10:58:56;6.20;;;3.67;;
60999;SDS011;46879;45.658;11.814;2023-12-14T11:03:58;5.55;;;3.70;;
60999;SDS011;46879;45.658;11.814;2023-12-14T11:09:08;5.68;;;3.80;;
60999;SDS011;46879;45.658;11.814;2023-12-14T11:14:14;5.03;;;3.78;;
60999;SDS011;46879;45.658;11.814;2023-12-14T11:24:22;7.55;;;3.75;;
60999;SDS011;46879;45.658;11.814;2023-12-14T11:29:23;5.25;;;4.00;;
60999;SDS011;46879;45.658;11.814;2023-12-14T11:34:24;6.68;;;3.70;;
60999;SDS011;46879;45.658;11.814;2023-12-14T11:39:29;5.03;;;3.75;;
60999;SDS011;46879;45.658;11.814;2023-12-14T11:44:31;5.18;;;4.07;;
60999;SDS011;46879;45.658;11.814;2023-12-14T11:49:31;5.78;;;3.85;;
60999;SDS011;46879;45.658;11.814;2023-12-14T11:54:32;4.03;;;3.63;;
60999;SDS011;46879;45.658;11.814;2023-12-14T11:59:33;6.85;;;3.55;;
60999;SDS011;46879;45.658;11.814;2023-12-14T12:04:35;7.32;;;3.45;;
60999;SDS011;46879;45.658;11.814;2023-12-14T12:09:36;8.30;;;4.13;;
60999;SDS011;46879;45.658;11.814;2023-12-14T12:14:44;5.93;;;4.07;;
60999;SDS011;46879;45.658;11.814;2023-12-14T12:19:45;5.93;;;3.50;;
60999;SDS011;46879;45.658;11.814;2023-12-14T12:24:45;5.60;;;3.42;;
60999;SDS011;46879;45.658;11.814;2023-12-14T12:29:46;4.07;;;3.38;;
60999;SDS011;46879;45.658;11.814;2023-12-14T12:34:47;5.68;;;3.72;;
60999;SDS011;46879;45.658;11.814;2023-12-14T12:39:47;4.90;;;3.40;;
60999;SDS011;46879;45.658;11.814;2023-12-14T12:44:48;4.60;;;3.53;;
60999;SDS011;46879;45.658;11.814;2023-12-14T12:49:49;4.60;;;3.72;;
60999;SDS011;46879;45.658;11.814;2023-12-14T12:54:49;6.70;;;3.85;;
60999;SDS011;46879;45.658;11.814;2023-12-14T12:59:50;4.43;;;3.50;;
60999;SDS011;46879;45.658;11.814;2023-12-14T13:04:50;6.40;;;3.33;;
60999;SDS011;46879;45.658;11.814;2023-12-14T13:09:51;4.72;;;3.63;;
60999;SDS011;46879;45.658;11.814;2023-12-14T13:14:52;6.75;;;3.72;;
60999;SDS011;46879;45.658;11.814;2023-12-14T13:19:52;4.60;;;3.42;;
60999;SDS011;46879;45.658;11.814;2023-12-14T13:24:53;5.32;;;3.92;;
60999;SDS011;46879;45.658;11.814;2023-12-14T13:29:55;6.72;;;3.67;;
60999;SDS011;46879;45.658;11.814;2023-12-14T13:34:55;4.75;;;3.47;;
60999;SDS011;46879;45.658;11.814;2023-12-14T13:39:56;5.25;;;3.80;;
60999;SDS011;46879;45.658;11.814;2023-12-14T13:44:56;4.45;;;3.13;;
60999;SDS011;46879;45.658;11.814;2023-12-14T13:49:57;3.95;;;3.50;;
60999;SDS011;46879;45.658;11.814;2023-12-14T13:54:57;4.22;;;3.78;;
60999;SDS011;46879;45.658;11.814;2023-12-14T13:59:59;5.00;;;3.55;;
60999;SDS011;46879;45.658;11.814;2023-12-14T14:04:59;7.07;;;4.45;;
60999;SDS011;46879;45.658;11.814;2023-12-14T14:10:00;4.90;;;4.15;;
60999;SDS011;46879;45.658;11.814;2023-12-14T14:15:01;4.72;;;3.50;;
60999;SDS011;46879;45.658;11.814;2023-12-14T14:20:01;5.20;;;3.83;;
60999;SDS011;46879;45.658;11.814;2023-12-14T14:25:03;7.07;;;3.97;;
60999;SDS011;46879;45.658;11.814;2023-12-14T14:30:06;6.03;;;4.38;;
60999;SDS011;46879;45.658;11.814;2023-12-14T14:35:07;4.78;;;3.85;;
60999;SDS011;46879;45.658;11.814;2023-12-14T14:40:08;8.02;;;4.05;;
60999;SDS011;46879;45.658;11.814;2023-12-14T14:45:09;8.43;;;4.50;;
60999;SDS011;46879;45.658;11.814;2023-12-14T14:50:11;14.23;;;4.85;;
60999;SDS011;46879;45.658;11.814;2023-12-14T14:55:11;13.95;;;5.72;;
60999;SDS011;46879;45.658;11.814;2023-12-14T15:00:12;26.95;;;5.43;;
60999;SDS011;46879;45.658;11.814;2023-12-14T15:05:15;21.58;;;5.65;;
60999;SDS011;46879;45.658;11.814;2023-12-14T15:10:15;16.67;;;4.57;;
60999;SDS011;46879;45.658;11.814;2023-12-14T15:15:16;12.13;;;4.88;;
60999;SDS011;46879;45.658;11.814;2023-12-14T15:20:17;23.75;;;5.18;;
60999;SDS011;46879;45.658;11.814;2023-12-14T15:25:17;10.80;;;4.40;;
60999;SDS011;46879;45.658;11.814;2023-12-14T15:30:18;11.57;;;4.88;;
60999;SDS011;46879;45.658;11.814;2023-12-14T15:35:19;27.55;;;5.13;;
60999;SDS011;46879;45.658;11.814;2023-12-14T15:40:20;8.23;;;4.53;;
60999;SDS011;46879;45.658;11.814;2023-12-14T15:45:21;10.50;;;4.53;;
60999;SDS011;46879;45.658;11.814;2023-12-14T15:50:21;11.98;;;4.50;;
60999;SDS011;46879;45.658;11.814;2023-12-14T15:55:22;5.80;;;3.75;;
60999;SDS011;46879;45.658;11.814;2023-12-14T16:00:24;9.43;;;4.80;;
60999;SDS011;46879;45.658;11.814;2023-12-14T16:05:25;11.52;;;3.83;;
60999;SDS011;46879;45.658;11.814;2023-12-14T16:10:25;7.30;;;3.70;;
60999;SDS011;46879;45.658;11.814;2023-12-14T16:15:26;12.82;;;4.25;;
60999;SDS011;46879;45.658;11.814;2023-12-14T16:20:26;10.52;;;4.38;;
60999;SDS011;46879;45.658;11.814;2023-12-14T16:25:27;13.25;;;5.07;;
60999;SDS011;46879;45.658;11.814;2023-12-14T16:30:28;7.78;;;3.70;;
60999;SDS011;46879;45.658;11.814;2023-12-14T16:35:28;8.55;;;3.60;;
60999;SDS011;46879;45.658;11.814;2023-12-14T16:40:30;5.75;;;4.07;;
60999;SDS011;46879;45.658;11.814;2023-12-14T16:45:30;6.40;;;4.07;;
60999;SDS011;46879;45.658;11.814;2023-12-14T16:50:31;4.90;;;3.72;;
60999;SDS011;46879;45.658;11.814;2023-12-14T16:55:31;5.00;;;3.70;;
60999;SDS011;46879;45.658;11.814;2023-12-14T17:00:32;10.40;;;3.70;;
60999;SDS011;46879;45.658;11.814;2023-12-14T17:05:32;10.18;;;3.85;;
60999;SDS011;46879;45.658;11.814;2023-12-14T17:10:33;7.05;;;3.72;;
60999;SDS011;46879;45.658;11.814;2023-12-14T17:15:34;7.68;;;3.92;;
60999;SDS011;46879;45.658;11.814;2023-12-14T17:20:34;5.18;;;3.60;;
60999;SDS011;46879;45.658;11.814;2023-12-14T17:25:35;5.13;;;3.60;;
60999;SDS011;46879;45.658;11.814;2023-12-14T17:30:35;8.38;;;3.85;;
60999;SDS011;46879;45.658;11.814;2023-12-14T17:35:36;3.97;;;3.38;;
60999;SDS011;46879;45.658;11.814;2023-12-14T17:40:36;5.80;;;3.47;;
60999;SDS011;46879;45.658;11.814;2023-12-14T17:45:37;4.35;;;3.60;;
60999;SDS011;46879;45.658;11.814;2023-12-14T17:50:38;4.57;;;3.63;;
60999;SDS011;46879;45.658;11.814;2023-12-14T17:55:38;7.70;;;3.50;;
60999;SDS011;46879;45.658;11.814;2023-12-14T18:00:39;5.20;;;3.78;;
60999;SDS011;46879;45.658;11.814;2023-12-14T18:05:39;4.97;;;3.35;;
60999;SDS011;46879;45.658;11.814;2023-12-14T18:10:40;4.03;;;3.33;;
60999;SDS011;46879;45.658;11.814;2023-12-14T18:15:40;5.10;;;3.35;;
60999;SDS011;46879;45.658;11.814;2023-12-14T18:20:41;11.98;;;3.30;;
60999;SDS011;46879;45.658;11.814;2023-12-14T18:25:42;3.50;;;2.70;;
60999;SDS011;46879;45.658;11.814;2023-12-14T18:30:46;4.40;;;3.20;;
60999;SDS011;46879;45.658;11.814;2023-12-14T18:35:46;5.78;;;3.15;;
60999;SDS011;46879;45.658;11.814;2023-12-14T18:40:47;4.35;;;3.45;;
60999;SDS011;46879;45.658;11.814;2023-12-14T18:45:47;4.65;;;3.10;;
60999;SDS011;46879;45.658;11.814;2023-12-14T18:50:48;4.15;;;3.15;;
60999;SDS011;46879;45.658;11.814;2023-12-14T18:55:48;6.47;;;3.20;;
60999;SDS011;46879;45.658;11.814;2023-12-14T19:00:49;5.10;;;3.30;;
60999;SDS011;46879;45.658;11.814;2023-12-14T19:05:49;5.32;;;3.58;;
60999;SDS011;46879;45.658;11.814;2023-12-14T19:10:50;4.13;;;3.53;;
60999;SDS011;46879;45.658;11.814;2023-12-14T19:15:51;4.47;;;4.07;;
60999;SDS011;46879;45.658;11.814;2023-12-14T19:20:51;4.78;;;3.88;;
60999;SDS011;46879;45.658;11.814;2023-12-14T19:25:52;4.13;;;3.65;;
60999;SDS011;46879;45.658;11.814;2023-12-14T19:30:54;8.20;;;3.95;;
60999;SDS011;46879;45.658;11.814;2023-12-14T19:35:55;6.32;;;4.10;;
60999;SDS011;46879;45.658;11.814;2023-12-14T19:40:56;8.73;;;3.78;;
60999;SDS011;46879;45.658;11.814;2023-12-14T19:45:56;4.07;;;3.55;;
60999;SDS011;46879;45.658;11.814;2023-12-14T19:50:57;4.72;;;3.67;;
60999;SDS011;46879;45.658;11.814;2023-12-14T19:55:59;5.55;;;3.60;;
60999;SDS011;46879;45.658;11.814;2023-12-14T20:00:59;11.23;;;3.50;;
60999;SDS011;46879;45.658;11.814;2023-12-14T20:06:00;6.60;;;4.05;;
60999;SDS011;46879;45.658;11.814;2023-12-14T20:11:01;13.48;;;4.38;;
60999;SDS011;46879;45.658;11.814;2023-12-14T20:16:01;6.75;;;3.60;;
60999;SDS011;46879;45.658;11.814;2023-12-14T20:21:06;5.80;;;3.85;;
60999;SDS011;46879;45.658;11.814;2023-12-14T20:26:07;7.70;;;3.45;;
60999;SDS011;46879;45.658;11.814;2023-12-14T20:31:09;6.25;;;3.38;;
60999;SDS011;46879;45.658;11.814;2023-12-14T20:36:11;4.22;;;3.53;;
60999;SDS011;46879;45.658;11.814;2023-12-14T20:41:12;18.15;;;5.07;;
60999;SDS011;46879;45.658;11.814;2023-12-14T20:46:16;10.52;;;4.05;;
60999;SDS011;46879;45.658;11.814;2023-12-14T20:51:16;10.35;;;3.90;;
60999;SDS011;46879;45.658;11.814;2023-12-14T20:56:19;9.02;;;4.00;;
60999;SDS011;46879;45.658;11.814;2023-12-14T21:01:19;7.32;;;3.90;;
60999;SDS011;46879;45.658;11.814;2023-12-14T21:06:20;4.25;;;3.65;;
60999;SDS011;46879;45.658;11.814;2023-12-14T21:11:21;6.47;;;4.22;;
60999;SDS011;46879;45.658;11.814;2023-12-14T21:16:24;9.45;;;4.57;;
60999;SDS011;46879;45.658;11.814;2023-12-14T21:21:25;11.40;;;4.40;;
60999;SDS011;46879;45.658;11.814;2023-12-14T21:26:26;11.05;;;4.93;;
60999;SDS011;46879;45.658;11.814;2023-12-14T21:31:26;10.15;;;4.47;;
60999;SDS011;46879;45.658;11.814;2023-12-14T21:36:27;10.75;;;5.38;;
60999;SDS011;46879;45.658;11.814;2023-12-14T21:41:28;13.02;;;4.40;;
60999;SDS011;46879;45.658;11.814;2023-12-14T21:46:28;8.18;;;4.10;;
60999;SDS011;46879;45.658;11.814;2023-12-14T21:51:29;11.00;;;4.60;;
60999;SDS011;46879;45.658;11.814;2023-12-14T21:56:29;6.93;;;3.67;;
60999;SDS011;46879;45.658;11.814;2023-12-14T22:01:30;9.82;;;4.32;;
60999;SDS011;46879;45.658;11.814;2023-12-14T22:06:32;16.00;;;4.40;;
60999;SDS011;46879;45.658;11.814;2023-12-14T22:11:33;11.90;;;4.13;;
60999;SDS011;46879;45.658;11.814;2023-12-14T22:16:33;7.30;;;3.75;;
60999;SDS011;46879;45.658;11.814;2023-12-14T22:21:34;8.93;;;4.28;;
60999;SDS011;46879;45.658;11.814;2023-12-14T22:26:34;15.55;;;4.40;;
60999;SDS011;46879;45.658;11.814;2023-12-14T22:31:35;10.63;;;4.13;;
60999;SDS011;46879;45.658;11.814;2023-12-14T22:36:36;10.20;;;3.60;;
60999;SDS011;46879;45.658;11.814;2023-12-14T22:41:37;6.90;;;4.05;;
60999;SDS011;46879;45.658;11.814;2023-12-14T22:46:38;8.80;;;3.92;;
60999;SDS011;46879;45.658;11.814;2023-12-14T22:51:40;11.00;;;3.78;;
60999;SDS011;46879;45.658;11.814;2023-12-14T22:56:41;7.20;;;4.15;;
60999;SDS011;46879;45.658;11.814;2023-12-14T23:01:41;5.88;;;3.80;;
60999;SDS011;46879;45.658;11.814;2023-12-14T23:06:42;5.80;;;3.67;;
60999;SDS011;46879;45.658;11.814;2023-12-14T23:11:43;4.53;;;3.50;;
60999;SDS011;46879;45.658;11.814;2023-12-14T23:16:45;5.75;;;3.60;;
60999;SDS011;46879;45.658;11.814;2023-12-14T23:21:46;7.32;;;4.00;;
60999;SDS011;46879;45.658;11.814;2023-12-14T23:26:46;6.78;;;3.97;;
60999;SDS011;46879;45.658;11.814;2023-12-14T23:31:47;5.32;;;3.55;;
60999;SDS011;46879;45.658;11.814;2023-12-14T23:36:48;8.38;;;3.40;;
60999;SDS011;46879;45.658;11.814;2023-12-14T23:41:48;8.27;;;3.20;;
60999;SDS011;46879;45.658;11.814;2023-12-14T23:46:49;6.70;;;3.38;;
60999;SDS011;46879;45.658;11.814;2023-12-14T23:51:49;5.43;;;3.50;;
60999;SDS011;46879;45.658;11.814;2023-12-14T23:56:50;13.85;;;3.28;;
